sensor_id;sensor_type;location;lat;lon;timestamp;P1;durP1;ratioP1;P2;durP2;ratioP2
80584;SDS011;70137;56.482;9.154;2023-06-10T00:01:39;5.53;;;3.55;;
80584;SDS011;70137;56.482;9.154;2023-06-10T00:04:04;6.75;;;3.92;;
80584;SDS011;70137;56.482;9.154;2023-06-10T00:06:30;6.80;;;4.05;;
80584;SDS011;70137;56.482;9.154;2023-06-10T00:09:00;7.25;;;4.00;;
80584;SDS011;70137;56.482;9.154;2023-06-10T00:11:26;5.30;;;3.70;;
80584;SDS011;70137;56.482;9.154;2023-06-10T00:13:51;7.07;;;4.20;;
80584;SDS011;70137;56.482;9.154;2023-06-10T00:16:17;7.28;;;4.22;;
80584;SDS011;70137;56.482;9.154;2023-06-10T00:18:43;9.27;;;4.00;;
80584;SDS011;70137;56.482;9.154;2023-06-10T00:21:09;7.10;;;3.80;;
80584;SDS011;70137;56.482;9.154;2023-06-10T00:23:34;6.80;;;4.10;;
80584;SDS011;70137;56.482;9.154;2023-06-10T00:26:03;6.65;;;3.90;;
80584;SDS011;70137;56.482;9.154;2023-06-10T00:28:29;6.10;;;4.00;;
80584;SDS011;70137;56.482;9.154;2023-06-10T00:30:54;5.85;;;3.92;;
80584;SDS011;70137;56.482;9.154;2023-06-10T00:33:20;8.98;;;3.88;;
80584;SDS011;70137;56.482;9.154;2023-06-10T00:35:46;6.13;;;3.95;;
80584;SDS011;70137;56.482;9.154;2023-06-10T00:38:12;6.32;;;3.80;;
80584;SDS011;70137;56.482;9.154;2023-06-10T00:40:39;6.05;;;3.78;;
80584;SDS011;70137;56.482;9.154;2023-06-10T00:43:08;6.20;;;4.28;;
80584;SDS011;70137;56.482;9.154;2023-06-10T00:45:33;7.30;;;4.35;;
80584;SDS011;70137;56.482;9.154;2023-06-10T00:47:59;7.40;;;4.53;;
80584;SDS011;70137;56.482;9.154;2023-06-10T00:50:25;6.88;;;4.82;;
80584;SDS011;70137;56.482;9.154;2023-06-10T00:52:51;9.32;;;5.15;;
80584;SDS011;70137;56.482;9.154;2023-06-10T00:55:18;5.88;;;4.45;;
80584;SDS011;70137;56.482;9.154;2023-06-10T00:57:44;8.32;;;4.30;;
80584;SDS011;70137;56.482;9.154;2023-06-10T01:00:11;7.07;;;4.30;;
80584;SDS011;70137;56.482;9.154;2023-06-10T01:02:37;9.57;;;4.72;;
80584;SDS011;70137;56.482;9.154;2023-06-10T01:05:03;8.23;;;4.40;;
80584;SDS011;70137;56.482;9.154;2023-06-10T01:07:31;7.55;;;4.30;;
80584;SDS011;70137;56.482;9.154;2023-06-10T01:12:58;7.72;;;4.60;;
80584;SDS011;70137;56.482;9.154;2023-06-10T01:15:27;8.90;;;4.93;;
80584;SDS011;70137;56.482;9.154;2023-06-10T01:17:55;9.15;;;4.93;;
80584;SDS011;70137;56.482;9.154;2023-06-10T01:20:23;8.55;;;5.05;;
80584;SDS011;70137;56.482;9.154;2023-06-10T01:22:49;8.95;;;4.55;;
80584;SDS011;70137;56.482;9.154;2023-06-10T01:25:15;10.52;;;5.45;;
80584;SDS011;70137;56.482;9.154;2023-06-10T01:27:42;8.07;;;4.97;;
80584;SDS011;70137;56.482;9.154;2023-06-10T01:30:14;7.47;;;4.55;;
80584;SDS011;70137;56.482;9.154;2023-06-10T01:32:43;12.63;;;5.47;;
80584;SDS011;70137;56.482;9.154;2023-06-10T01:35:10;6.00;;;5.05;;
80584;SDS011;70137;56.482;9.154;2023-06-10T01:37:40;8.13;;;5.22;;
80584;SDS011;70137;56.482;9.154;2023-06-10T01:40:10;8.60;;;5.78;;
80584;SDS011;70137;56.482;9.154;2023-06-10T01:42:37;9.18;;;5.25;;
80584;SDS011;70137;56.482;9.154;2023-06-10T01:45:02;6.72;;;5.15;;
80584;SDS011;70137;56.482;9.154;2023-06-10T01:47:28;10.50;;;5.00;;
80584;SDS011;70137;56.482;9.154;2023-06-10T01:49:54;8.80;;;5.47;;
80584;SDS011;70137;56.482;9.154;2023-06-10T01:52:19;8.82;;;5.43;;
80584;SDS011;70137;56.482;9.154;2023-06-10T01:54:44;11.63;;;5.60;;
80584;SDS011;70137;56.482;9.154;2023-06-10T01:57:10;8.35;;;5.05;;
80584;SDS011;70137;56.482;9.154;2023-06-10T01:59:35;8.02;;;5.30;;
80584;SDS011;70137;56.482;9.154;2023-06-10T02:02:02;7.47;;;4.95;;
80584;SDS011;70137;56.482;9.154;2023-06-10T02:04:28;8.48;;;5.30;;
80584;SDS011;70137;56.482;9.154;2023-06-10T02:06:53;9.05;;;4.70;;
80584;SDS011;70137;56.482;9.154;2023-06-10T02:09:20;7.57;;;5.35;;
80584;SDS011;70137;56.482;9.154;2023-06-10T02:11:49;7.75;;;5.35;;
80584;SDS011;70137;56.482;9.154;2023-06-10T02:14:14;9.57;;;6.20;;
80584;SDS011;70137;56.482;9.154;2023-06-10T02:16:40;8.20;;;5.70;;
80584;SDS011;70137;56.482;9.154;2023-06-10T02:19:06;10.10;;;5.22;;
80584;SDS011;70137;56.482;9.154;2023-06-10T02:21:32;8.93;;;5.70;;
80584;SDS011;70137;56.482;9.154;2023-06-10T02:24:00;9.32;;;6.13;;
80584;SDS011;70137;56.482;9.154;2023-06-10T02:26:26;8.90;;;6.13;;
80584;SDS011;70137;56.482;9.154;2023-06-10T02:28:51;10.05;;;5.95;;
80584;SDS011;70137;56.482;9.154;2023-06-10T02:31:17;11.63;;;6.55;;
80584;SDS011;70137;56.482;9.154;2023-06-10T02:33:43;8.82;;;6.07;;
80584;SDS011;70137;56.482;9.154;2023-06-10T02:36:09;11.50;;;6.38;;
80584;SDS011;70137;56.482;9.154;2023-06-10T02:38:38;12.45;;;7.05;;
80584;SDS011;70137;56.482;9.154;2023-06-10T02:41:07;9.63;;;5.93;;
80584;SDS011;70137;56.482;9.154;2023-06-10T02:43:33;6.80;;;5.50;;
80584;SDS011;70137;56.482;9.154;2023-06-10T02:45:58;8.18;;;5.15;;
80584;SDS011;70137;56.482;9.154;2023-06-10T02:48:24;6.60;;;5.00;;
80584;SDS011;70137;56.482;9.154;2023-06-10T02:50:49;8.75;;;5.07;;
80584;SDS011;70137;56.482;9.154;2023-06-10T02:53:15;8.52;;;4.97;;
80584;SDS011;70137;56.482;9.154;2023-06-10T02:55:40;8.93;;;5.50;;
80584;SDS011;70137;56.482;9.154;2023-06-10T02:58:05;8.52;;;5.50;;
80584;SDS011;70137;56.482;9.154;2023-06-10T03:00:32;8.55;;;5.50;;
80584;SDS011;70137;56.482;9.154;2023-06-10T03:02:58;9.48;;;5.28;;
80584;SDS011;70137;56.482;9.154;2023-06-10T03:05:27;8.88;;;5.40;;
80584;SDS011;70137;56.482;9.154;2023-06-10T03:07:53;7.82;;;5.15;;
80584;SDS011;70137;56.482;9.154;2023-06-10T03:10:18;10.38;;;5.50;;
80584;SDS011;70137;56.482;9.154;2023-06-10T03:12:44;6.40;;;5.00;;
80584;SDS011;70137;56.482;9.154;2023-06-10T03:15:09;8.27;;;4.82;;
80584;SDS011;70137;56.482;9.154;2023-06-10T03:17:35;6.65;;;4.40;;
80584;SDS011;70137;56.482;9.154;2023-06-10T03:20:03;7.18;;;4.70;;
80584;SDS011;70137;56.482;9.154;2023-06-10T03:22:30;9.00;;;4.82;;
80584;SDS011;70137;56.482;9.154;2023-06-10T03:24:56;9.45;;;5.18;;
80584;SDS011;70137;56.482;9.154;2023-06-10T03:27:22;8.82;;;5.13;;
80584;SDS011;70137;56.482;9.154;2023-06-10T03:29:48;7.60;;;4.88;;
80584;SDS011;70137;56.482;9.154;2023-06-10T03:32:13;8.88;;;5.18;;
80584;SDS011;70137;56.482;9.154;2023-06-10T03:34:39;7.15;;;4.70;;
80584;SDS011;70137;56.482;9.154;2023-06-10T03:37:05;8.27;;;5.10;;
80584;SDS011;70137;56.482;9.154;2023-06-10T03:39:30;9.07;;;4.88;;
80584;SDS011;70137;56.482;9.154;2023-06-10T03:41:56;10.85;;;4.90;;
80584;SDS011;70137;56.482;9.154;2023-06-10T03:44:24;9.85;;;5.15;;
80584;SDS011;70137;56.482;9.154;2023-06-10T03:46:51;8.57;;;5.15;;
80584;SDS011;70137;56.482;9.154;2023-06-10T03:49:16;9.82;;;5.45;;
80584;SDS011;70137;56.482;9.154;2023-06-10T03:51:42;7.50;;;5.10;;
80584;SDS011;70137;56.482;9.154;2023-06-10T03:54:08;10.00;;;5.50;;
80584;SDS011;70137;56.482;9.154;2023-06-10T03:56:33;8.02;;;5.65;;
80584;SDS011;70137;56.482;9.154;2023-06-10T03:58:59;10.43;;;5.40;;
80584;SDS011;70137;56.482;9.154;2023-06-10T04:01:25;6.50;;;5.38;;
80584;SDS011;70137;56.482;9.154;2023-06-10T04:03:50;12.68;;;5.45;;
80584;SDS011;70137;56.482;9.154;2023-06-10T04:06:18;7.25;;;5.18;;
80584;SDS011;70137;56.482;9.154;2023-06-10T04:08:44;7.63;;;4.43;;
80584;SDS011;70137;56.482;9.154;2023-06-10T04:11:09;12.63;;;5.22;;
80584;SDS011;70137;56.482;9.154;2023-06-10T04:13:35;7.88;;;4.50;;
80584;SDS011;70137;56.482;9.154;2023-06-10T04:16:00;9.48;;;4.63;;
80584;SDS011;70137;56.482;9.154;2023-06-10T04:18:25;8.90;;;4.80;;
80584;SDS011;70137;56.482;9.154;2023-06-10T04:20:53;7.88;;;4.90;;
80584;SDS011;70137;56.482;9.154;2023-06-10T04:23:19;7.28;;;4.10;;
80584;SDS011;70137;56.482;9.154;2023-06-10T04:25:44;9.82;;;4.60;;
80584;SDS011;70137;56.482;9.154;2023-06-10T04:28:10;8.20;;;4.03;;
80584;SDS011;70137;56.482;9.154;2023-06-10T04:30:35;6.90;;;4.35;;
80584;SDS011;70137;56.482;9.154;2023-06-10T04:33:00;9.25;;;4.10;;
80584;SDS011;70137;56.482;9.154;2023-06-10T04:35:26;6.60;;;4.15;;
80584;SDS011;70137;56.482;9.154;2023-06-10T04:37:54;9.35;;;4.00;;
80584;SDS011;70137;56.482;9.154;2023-06-10T04:40:19;8.75;;;4.75;;
80584;SDS011;70137;56.482;9.154;2023-06-10T04:42:45;10.75;;;4.38;;
80584;SDS011;70137;56.482;9.154;2023-06-10T04:45:10;8.00;;;4.85;;
80584;SDS011;70137;56.482;9.154;2023-06-10T04:47:36;9.48;;;4.45;;
80584;SDS011;70137;56.482;9.154;2023-06-10T04:50:02;8.07;;;4.07;;
80584;SDS011;70137;56.482;9.154;2023-06-10T04:52:29;7.03;;;4.38;;
80584;SDS011;70137;56.482;9.154;2023-06-10T04:54:54;6.45;;;4.53;;
80584;SDS011;70137;56.482;9.154;2023-06-10T04:57:20;6.60;;;4.40;;
80584;SDS011;70137;56.482;9.154;2023-06-10T04:59:46;6.20;;;4.20;;
80584;SDS011;70137;56.482;9.154;2023-06-10T05:02:12;6.28;;;4.00;;
80584;SDS011;70137;56.482;9.154;2023-06-10T05:04:37;5.80;;;4.50;;
80584;SDS011;70137;56.482;9.154;2023-06-10T05:07:02;5.18;;;4.00;;
80584;SDS011;70137;56.482;9.154;2023-06-10T05:09:28;8.68;;;4.20;;
80584;SDS011;70137;56.482;9.154;2023-06-10T05:11:54;5.60;;;3.70;;
80584;SDS011;70137;56.482;9.154;2023-06-10T05:14:19;4.90;;;3.72;;
80584;SDS011;70137;56.482;9.154;2023-06-10T05:16:46;6.43;;;3.80;;
80584;SDS011;70137;56.482;9.154;2023-06-10T05:19:11;7.63;;;3.78;;
80584;SDS011;70137;56.482;9.154;2023-06-10T05:21:37;6.88;;;3.88;;
80584;SDS011;70137;56.482;9.154;2023-06-10T05:24:02;7.35;;;4.05;;
80584;SDS011;70137;56.482;9.154;2023-06-10T05:26:28;6.55;;;3.63;;
80584;SDS011;70137;56.482;9.154;2023-06-10T05:28:54;5.18;;;3.22;;
80584;SDS011;70137;56.482;9.154;2023-06-10T05:31:19;6.82;;;3.17;;
80584;SDS011;70137;56.482;9.154;2023-06-10T05:33:44;4.47;;;2.88;;
80584;SDS011;70137;56.482;9.154;2023-06-10T05:36:10;5.25;;;2.97;;
80584;SDS011;70137;56.482;9.154;2023-06-10T05:38:35;3.45;;;2.72;;
80584;SDS011;70137;56.482;9.154;2023-06-10T05:41:01;4.25;;;3.00;;
80584;SDS011;70137;56.482;9.154;2023-06-10T05:43:28;4.95;;;2.15;;
80584;SDS011;70137;56.482;9.154;2023-06-10T05:45:53;6.00;;;2.60;;
80584;SDS011;70137;56.482;9.154;2023-06-10T05:48:19;3.60;;;2.35;;
80584;SDS011;70137;56.482;9.154;2023-06-10T05:50:45;3.38;;;2.05;;
80584;SDS011;70137;56.482;9.154;2023-06-10T05:53:13;3.72;;;1.90;;
80584;SDS011;70137;56.482;9.154;2023-06-10T05:55:40;2.78;;;1.80;;
80584;SDS011;70137;56.482;9.154;2023-06-10T05:58:08;3.00;;;1.63;;
80584;SDS011;70137;56.482;9.154;2023-06-10T06:00:34;2.30;;;1.70;;
80584;SDS011;70137;56.482;9.154;2023-06-10T06:02:59;2.83;;;1.80;;
80584;SDS011;70137;56.482;9.154;2023-06-10T06:05:25;4.47;;;1.60;;
80584;SDS011;70137;56.482;9.154;2023-06-10T06:07:53;3.03;;;1.20;;
80584;SDS011;70137;56.482;9.154;2023-06-10T06:10:20;4.78;;;1.30;;
80584;SDS011;70137;56.482;9.154;2023-06-10T06:12:46;1.75;;;1.30;;
80584;SDS011;70137;56.482;9.154;2023-06-10T06:15:11;3.58;;;1.38;;
80584;SDS011;70137;56.482;9.154;2023-06-10T06:17:36;2.75;;;1.17;;
80584;SDS011;70137;56.482;9.154;2023-06-10T06:20:02;3.60;;;1.40;;
80584;SDS011;70137;56.482;9.154;2023-06-10T06:22:30;2.17;;;1.10;;
80584;SDS011;70137;56.482;9.154;2023-06-10T06:24:57;2.55;;;1.65;;
80584;SDS011;70137;56.482;9.154;2023-06-10T06:27:30;4.15;;;1.10;;
80584;SDS011;70137;56.482;9.154;2023-06-10T06:30:43;2.85;;;1.17;;
80584;SDS011;70137;56.482;9.154;2023-06-10T06:33:29;2.25;;;1.02;;
80584;SDS011;70137;56.482;9.154;2023-06-10T06:35:57;3.25;;;0.90;;
80584;SDS011;70137;56.482;9.154;2023-06-10T06:38:25;2.67;;;0.80;;
80584;SDS011;70137;56.482;9.154;2023-06-10T06:40:53;4.43;;;1.23;;
80584;SDS011;70137;56.482;9.154;2023-06-10T06:57:36;1.25;;;0.90;;
80584;SDS011;70137;56.482;9.154;2023-06-10T07:04:27;1.23;;;0.90;;
80584;SDS011;70137;56.482;9.154;2023-06-10T07:10:57;1.85;;;1.00;;
80584;SDS011;70137;56.482;9.154;2023-06-10T07:36:57;1.20;;;1.02;;
80584;SDS011;70137;56.482;9.154;2023-06-10T07:43:21;2.15;;;0.80;;
80584;SDS011;70137;56.482;9.154;2023-06-10T07:46:09;1.50;;;0.70;;
80584;SDS011;70137;56.482;9.154;2023-06-10T07:49:17;0.90;;;0.75;;
80584;SDS011;70137;56.482;9.154;2023-06-10T07:52:42;1.75;;;0.80;;
80584;SDS011;70137;56.482;9.154;2023-06-10T07:55:58;2.17;;;1.08;;
80584;SDS011;70137;56.482;9.154;2023-06-10T08:06:57;1.10;;;0.93;;
80584;SDS011;70137;56.482;9.154;2023-06-10T08:13:43;4.63;;;1.23;;
80584;SDS011;70137;56.482;9.154;2023-06-10T08:16:48;1.10;;;0.88;;
80584;SDS011;70137;56.482;9.154;2023-06-10T08:30:20;2.60;;;1.58;;
80584;SDS011;70137;56.482;9.154;2023-06-10T08:39:40;4.25;;;1.30;;
80584;SDS011;70137;56.482;9.154;2023-06-10T08:45:30;3.28;;;1.27;;
80584;SDS011;70137;56.482;9.154;2023-06-10T08:48:28;4.53;;;1.75;;
80584;SDS011;70137;56.482;9.154;2023-06-10T08:51:03;4.10;;;1.65;;
80584;SDS011;70137;56.482;9.154;2023-06-10T08:53:41;2.13;;;1.52;;
80584;SDS011;70137;56.482;9.154;2023-06-10T08:56:27;5.22;;;1.30;;
80584;SDS011;70137;56.482;9.154;2023-06-10T08:59:24;1.98;;;1.33;;
80584;SDS011;70137;56.482;9.154;2023-06-10T09:02:15;3.72;;;1.55;;
80584;SDS011;70137;56.482;9.154;2023-06-10T09:12:49;3.97;;;1.42;;
80584;SDS011;70137;56.482;9.154;2023-06-10T09:15:45;1.75;;;1.30;;
80584;SDS011;70137;56.482;9.154;2023-06-10T09:28:36;4.13;;;1.58;;
80584;SDS011;70137;56.482;9.154;2023-06-10T09:31:05;2.17;;;1.50;;
80584;SDS011;70137;56.482;9.154;2023-06-10T09:33:40;2.95;;;1.50;;
80584;SDS011;70137;56.482;9.154;2023-06-10T09:36:25;2.75;;;1.73;;
80584;SDS011;70137;56.482;9.154;2023-06-10T09:49:18;2.42;;;1.30;;
80584;SDS011;70137;56.482;9.154;2023-06-10T10:05:43;2.75;;;1.52;;
80584;SDS011;70137;56.482;9.154;2023-06-10T10:11:50;9.85;;;1.73;;
80584;SDS011;70137;56.482;9.154;2023-06-10T10:14:52;2.55;;;1.33;;
80584;SDS011;70137;56.482;9.154;2023-06-10T10:17:53;3.75;;;1.60;;
80584;SDS011;70137;56.482;9.154;2023-06-10T10:20:57;3.10;;;1.70;;
80584;SDS011;70137;56.482;9.154;2023-06-10T10:28:33;4.63;;;1.55;;
80584;SDS011;70137;56.482;9.154;2023-06-10T10:43:42;3.28;;;1.65;;
80584;SDS011;70137;56.482;9.154;2023-06-10T10:46:39;3.53;;;1.73;;
80584;SDS011;70137;56.482;9.154;2023-06-10T10:52:52;6.15;;;2.03;;
80584;SDS011;70137;56.482;9.154;2023-06-10T10:59:21;3.30;;;1.85;;
80584;SDS011;70137;56.482;9.154;2023-06-10T11:05:15;4.03;;;1.70;;
80584;SDS011;70137;56.482;9.154;2023-06-10T11:07:41;3.97;;;1.77;;
80584;SDS011;70137;56.482;9.154;2023-06-10T11:10:35;4.43;;;1.70;;
80584;SDS011;70137;56.482;9.154;2023-06-10T11:13:14;3.67;;;1.70;;
80584;SDS011;70137;56.482;9.154;2023-06-10T11:15:49;2.20;;;1.83;;
80584;SDS011;70137;56.482;9.154;2023-06-10T11:21:03;2.65;;;1.50;;
80584;SDS011;70137;56.482;9.154;2023-06-10T11:23:38;4.00;;;1.92;;
80584;SDS011;70137;56.482;9.154;2023-06-10T11:29:23;5.80;;;1.88;;
80584;SDS011;70137;56.482;9.154;2023-06-10T11:32:29;2.95;;;1.70;;
80584;SDS011;70137;56.482;9.154;2023-06-10T11:35:25;3.05;;;1.67;;
80584;SDS011;70137;56.482;9.154;2023-06-10T11:38:32;2.53;;;1.70;;
80584;SDS011;70137;56.482;9.154;2023-06-10T11:41:35;3.95;;;1.60;;
80584;SDS011;70137;56.482;9.154;2023-06-10T11:55:03;5.50;;;1.70;;
80584;SDS011;70137;56.482;9.154;2023-06-10T12:04:37;2.50;;;1.50;;
80584;SDS011;70137;56.482;9.154;2023-06-10T12:07:37;3.60;;;1.88;;
80584;SDS011;70137;56.482;9.154;2023-06-10T12:10:23;2.95;;;1.80;;
80584;SDS011;70137;56.482;9.154;2023-06-10T12:13:16;4.35;;;1.40;;
80584;SDS011;70137;56.482;9.154;2023-06-10T12:16:32;5.50;;;1.35;;
80584;SDS011;70137;56.482;9.154;2023-06-10T12:22:41;2.40;;;1.10;;
80584;SDS011;70137;56.482;9.154;2023-06-10T12:25:36;3.10;;;1.52;;
80584;SDS011;70137;56.482;9.154;2023-06-10T12:28:32;2.90;;;1.38;;
80584;SDS011;70137;56.482;9.154;2023-06-10T12:34:07;3.43;;;1.40;;
80584;SDS011;70137;56.482;9.154;2023-06-10T12:36:53;3.83;;;1.42;;
80584;SDS011;70137;56.482;9.154;2023-06-10T12:39:29;3.85;;;1.42;;
80584;SDS011;70137;56.482;9.154;2023-06-10T12:42:00;4.80;;;1.42;;
80584;SDS011;70137;56.482;9.154;2023-06-10T12:44:39;3.70;;;1.42;;
80584;SDS011;70137;56.482;9.154;2023-06-10T12:54:09;3.20;;;1.10;;
80584;SDS011;70137;56.482;9.154;2023-06-10T12:56:55;3.60;;;1.25;;
80584;SDS011;70137;56.482;9.154;2023-06-10T13:00:01;6.43;;;1.30;;
80584;SDS011;70137;56.482;9.154;2023-06-10T13:06:05;2.78;;;1.23;;
80584;SDS011;70137;56.482;9.154;2023-06-10T13:12:02;3.63;;;1.20;;
80584;SDS011;70137;56.482;9.154;2023-06-10T13:14:58;4.40;;;1.30;;
80584;SDS011;70137;56.482;9.154;2023-06-10T13:18:10;3.45;;;1.40;;
80584;SDS011;70137;56.482;9.154;2023-06-10T13:24:56;4.57;;;1.20;;
80584;SDS011;70137;56.482;9.154;2023-06-10T13:28:19;2.75;;;1.15;;
80584;SDS011;70137;56.482;9.154;2023-06-10T13:35:01;3.42;;;1.20;;
80584;SDS011;70137;56.482;9.154;2023-06-10T13:38:16;3.35;;;1.08;;
80584;SDS011;70137;56.482;9.154;2023-06-10T13:41:25;4.55;;;1.70;;
80584;SDS011;70137;56.482;9.154;2023-06-10T13:44:06;3.55;;;1.20;;
80584;SDS011;70137;56.482;9.154;2023-06-10T13:57:09;2.28;;;1.17;;
80584;SDS011;70137;56.482;9.154;2023-06-10T14:00:13;3.05;;;1.10;;
80584;SDS011;70137;56.482;9.154;2023-06-10T14:13:04;2.05;;;1.20;;
80584;SDS011;70137;56.482;9.154;2023-06-10T14:16:10;2.90;;;1.00;;
80584;SDS011;70137;56.482;9.154;2023-06-10T14:22:22;4.82;;;1.20;;
80584;SDS011;70137;56.482;9.154;2023-06-10T14:24:53;6.05;;;1.10;;
80584;SDS011;70137;56.482;9.154;2023-06-10T14:27:18;2.95;;;1.10;;
80584;SDS011;70137;56.482;9.154;2023-06-10T14:29:46;2.00;;;0.95;;
80584;SDS011;70137;56.482;9.154;2023-06-10T14:35:38;8.48;;;1.33;;
80584;SDS011;70137;56.482;9.154;2023-06-10T14:38:35;2.65;;;0.90;;
80584;SDS011;70137;56.482;9.154;2023-06-10T14:41:23;1.23;;;0.90;;
80584;SDS011;70137;56.482;9.154;2023-06-10T14:43:48;2.13;;;0.80;;
80584;SDS011;70137;56.482;9.154;2023-06-10T14:46:24;0.90;;;0.80;;
80584;SDS011;70137;56.482;9.154;2023-06-10T14:49:28;5.45;;;1.30;;
80584;SDS011;70137;56.482;9.154;2023-06-10T14:52:24;1.67;;;1.02;;
80584;SDS011;70137;56.482;9.154;2023-06-10T14:55:09;1.67;;;0.95;;
80584;SDS011;70137;56.482;9.154;2023-06-10T15:04:50;2.78;;;0.88;;
80584;SDS011;70137;56.482;9.154;2023-06-10T15:07:28;3.63;;;1.02;;
80584;SDS011;70137;56.482;9.154;2023-06-10T15:13:40;1.50;;;0.98;;
80584;SDS011;70137;56.482;9.154;2023-06-10T15:19:56;3.00;;;1.00;;
80584;SDS011;70137;56.482;9.154;2023-06-10T15:26:34;2.88;;;0.70;;
80584;SDS011;70137;56.482;9.154;2023-06-10T15:33:00;2.17;;;0.93;;
80584;SDS011;70137;56.482;9.154;2023-06-10T15:35:45;2.55;;;1.05;;
80584;SDS011;70137;56.482;9.154;2023-06-10T15:51:37;1.80;;;1.20;;
80584;SDS011;70137;56.482;9.154;2023-06-10T16:04:40;3.30;;;0.90;;
80584;SDS011;70137;56.482;9.154;2023-06-10T16:07:08;4.80;;;1.25;;
80584;SDS011;70137;56.482;9.154;2023-06-10T16:09:39;4.47;;;0.95;;
80584;SDS011;70137;56.482;9.154;2023-06-10T16:12:20;2.08;;;1.00;;
80584;SDS011;70137;56.482;9.154;2023-06-10T16:14:55;3.90;;;1.10;;
80584;SDS011;70137;56.482;9.154;2023-06-10T16:17:21;1.52;;;0.90;;
80584;SDS011;70137;56.482;9.154;2023-06-10T16:19:46;1.83;;;1.40;;
80584;SDS011;70137;56.482;9.154;2023-06-10T16:22:29;2.20;;;0.95;;
80584;SDS011;70137;56.482;9.154;2023-06-10T16:24:55;2.88;;;0.93;;
80584;SDS011;70137;56.482;9.154;2023-06-10T16:27:23;1.65;;;0.90;;
80584;SDS011;70137;56.482;9.154;2023-06-10T16:29:53;1.48;;;1.00;;
80584;SDS011;70137;56.482;9.154;2023-06-10T16:32:27;2.20;;;1.10;;
80584;SDS011;70137;56.482;9.154;2023-06-10T16:35:10;4.35;;;1.00;;
80584;SDS011;70137;56.482;9.154;2023-06-10T16:37:35;2.38;;;1.13;;
80584;SDS011;70137;56.482;9.154;2023-06-10T16:40:17;1.85;;;0.73;;
80584;SDS011;70137;56.482;9.154;2023-06-10T16:43:16;2.50;;;1.10;;
80584;SDS011;70137;56.482;9.154;2023-06-10T16:46:16;3.45;;;1.08;;
80584;SDS011;70137;56.482;9.154;2023-06-10T16:48:47;2.25;;;1.10;;
80584;SDS011;70137;56.482;9.154;2023-06-10T16:51:20;2.92;;;1.05;;
80584;SDS011;70137;56.482;9.154;2023-06-10T16:54:11;1.33;;;0.80;;
80584;SDS011;70137;56.482;9.154;2023-06-10T16:57:09;24.42;;;1.88;;
80584;SDS011;70137;56.482;9.154;2023-06-10T16:59:56;3.60;;;0.95;;
80584;SDS011;70137;56.482;9.154;2023-06-10T17:03:09;6.03;;;1.10;;
80584;SDS011;70137;56.482;9.154;2023-06-10T17:05:51;1.10;;;0.90;;
80584;SDS011;70137;56.482;9.154;2023-06-10T17:08:30;1.58;;;0.90;;
80584;SDS011;70137;56.482;9.154;2023-06-10T17:11:21;3.05;;;1.00;;
80584;SDS011;70137;56.482;9.154;2023-06-10T17:14:13;2.88;;;1.05;;
80584;SDS011;70137;56.482;9.154;2023-06-10T17:16:54;3.13;;;0.98;;
80584;SDS011;70137;56.482;9.154;2023-06-10T17:19:39;2.28;;;1.02;;
80584;SDS011;70137;56.482;9.154;2023-06-10T17:22:07;2.80;;;0.98;;
80584;SDS011;70137;56.482;9.154;2023-06-10T17:24:33;3.35;;;0.95;;
80584;SDS011;70137;56.482;9.154;2023-06-10T17:27:11;1.88;;;1.00;;
80584;SDS011;70137;56.482;9.154;2023-06-10T17:29:42;2.22;;;0.90;;
80584;SDS011;70137;56.482;9.154;2023-06-10T17:32:17;1.52;;;0.82;;
80584;SDS011;70137;56.482;9.154;2023-06-10T17:37:51;3.70;;;0.95;;
80584;SDS011;70137;56.482;9.154;2023-06-10T17:40:19;3.58;;;1.00;;
80584;SDS011;70137;56.482;9.154;2023-06-10T17:43:02;2.85;;;0.90;;
80584;SDS011;70137;56.482;9.154;2023-06-10T17:45:47;1.83;;;1.00;;
80584;SDS011;70137;56.482;9.154;2023-06-10T17:48:15;3.17;;;0.80;;
80584;SDS011;70137;56.482;9.154;2023-06-10T17:53:13;4.37;;;1.10;;
80584;SDS011;70137;56.482;9.154;2023-06-10T17:55:39;1.55;;;1.00;;
80584;SDS011;70137;56.482;9.154;2023-06-10T17:58:04;2.20;;;0.95;;
80584;SDS011;70137;56.482;9.154;2023-06-10T18:00:29;4.13;;;1.08;;
80584;SDS011;70137;56.482;9.154;2023-06-10T18:02:55;2.20;;;1.05;;
80584;SDS011;70137;56.482;9.154;2023-06-10T18:05:20;1.88;;;1.25;;
80584;SDS011;70137;56.482;9.154;2023-06-10T18:07:46;2.53;;;0.90;;
80584;SDS011;70137;56.482;9.154;2023-06-10T18:10:11;2.38;;;1.08;;
80584;SDS011;70137;56.482;9.154;2023-06-10T18:12:37;2.33;;;0.93;;
80584;SDS011;70137;56.482;9.154;2023-06-10T18:15:03;3.92;;;1.20;;
80584;SDS011;70137;56.482;9.154;2023-06-10T18:17:32;1.70;;;0.80;;
80584;SDS011;70137;56.482;9.154;2023-06-10T18:20:03;3.03;;;1.00;;
80584;SDS011;70137;56.482;9.154;2023-06-10T18:22:29;2.05;;;1.00;;
80584;SDS011;70137;56.482;9.154;2023-06-10T18:25:05;1.88;;;0.80;;
80584;SDS011;70137;56.482;9.154;2023-06-10T18:27:31;3.53;;;1.20;;
80584;SDS011;70137;56.482;9.154;2023-06-10T18:30:00;5.38;;;0.90;;
80584;SDS011;70137;56.482;9.154;2023-06-10T18:32:28;2.75;;;1.42;;
80584;SDS011;70137;56.482;9.154;2023-06-10T18:34:56;3.65;;;1.23;;
80584;SDS011;70137;56.482;9.154;2023-06-10T18:37:21;3.75;;;1.40;;
80584;SDS011;70137;56.482;9.154;2023-06-10T18:39:47;2.90;;;1.30;;
80584;SDS011;70137;56.482;9.154;2023-06-10T18:42:12;2.33;;;1.00;;
80584;SDS011;70137;56.482;9.154;2023-06-10T18:47:35;3.60;;;1.02;;
80584;SDS011;70137;56.482;9.154;2023-06-10T18:50:00;3.05;;;0.90;;
80584;SDS011;70137;56.482;9.154;2023-06-10T18:52:36;2.20;;;1.10;;
80584;SDS011;70137;56.482;9.154;2023-06-10T18:55:01;1.15;;;0.80;;
80584;SDS011;70137;56.482;9.154;2023-06-10T18:57:27;2.95;;;0.90;;
80584;SDS011;70137;56.482;9.154;2023-06-10T18:59:52;5.35;;;0.90;;
80584;SDS011;70137;56.482;9.154;2023-06-10T19:02:25;7.10;;;1.08;;
80584;SDS011;70137;56.482;9.154;2023-06-10T19:04:51;3.60;;;1.00;;
80584;SDS011;70137;56.482;9.154;2023-06-10T19:07:18;2.83;;;0.93;;
80584;SDS011;70137;56.482;9.154;2023-06-10T19:09:44;3.78;;;1.20;;
80584;SDS011;70137;56.482;9.154;2023-06-10T19:12:09;5.03;;;1.00;;
80584;SDS011;70137;56.482;9.154;2023-06-10T19:14:35;6.32;;;1.33;;
80584;SDS011;70137;56.482;9.154;2023-06-10T19:17:00;2.45;;;1.20;;
80584;SDS011;70137;56.482;9.154;2023-06-10T19:19:26;2.38;;;0.70;;
80584;SDS011;70137;56.482;9.154;2023-06-10T19:21:51;2.90;;;0.80;;
80584;SDS011;70137;56.482;9.154;2023-06-10T19:24:16;2.58;;;1.02;;
80584;SDS011;70137;56.482;9.154;2023-06-10T19:26:44;6.78;;;1.35;;
80584;SDS011;70137;56.482;9.154;2023-06-10T19:29:09;5.13;;;1.40;;
80584;SDS011;70137;56.482;9.154;2023-06-10T19:31:35;3.75;;;1.83;;
80584;SDS011;70137;56.482;9.154;2023-06-10T19:34:02;3.42;;;0.98;;
80584;SDS011;70137;56.482;9.154;2023-06-10T19:36:28;1.63;;;0.95;;
80584;SDS011;70137;56.482;9.154;2023-06-10T19:38:53;2.08;;;1.00;;
80584;SDS011;70137;56.482;9.154;2023-06-10T19:41:21;3.15;;;1.10;;
80584;SDS011;70137;56.482;9.154;2023-06-10T19:43:48;1.45;;;0.98;;
80584;SDS011;70137;56.482;9.154;2023-06-10T19:46:13;5.22;;;1.00;;
80584;SDS011;70137;56.482;9.154;2023-06-10T19:48:44;1.70;;;1.08;;
80584;SDS011;70137;56.482;9.154;2023-06-10T19:51:12;12.23;;;1.20;;
80584;SDS011;70137;56.482;9.154;2023-06-10T19:53:37;1.55;;;1.00;;
80584;SDS011;70137;56.482;9.154;2023-06-10T19:56:03;3.42;;;1.35;;
80584;SDS011;70137;56.482;9.154;2023-06-10T19:58:28;2.88;;;1.10;;
80584;SDS011;70137;56.482;9.154;2023-06-10T20:00:54;3.85;;;1.10;;
80584;SDS011;70137;56.482;9.154;2023-06-10T20:03:19;2.15;;;1.08;;
80584;SDS011;70137;56.482;9.154;2023-06-10T20:05:44;2.05;;;1.20;;
80584;SDS011;70137;56.482;9.154;2023-06-10T20:08:10;4.15;;;1.33;;
80584;SDS011;70137;56.482;9.154;2023-06-10T20:10:35;4.78;;;1.50;;
80584;SDS011;70137;56.482;9.154;2023-06-10T20:13:01;4.40;;;1.60;;
80584;SDS011;70137;56.482;9.154;2023-06-10T20:15:27;3.60;;;1.20;;
80584;SDS011;70137;56.482;9.154;2023-06-10T20:17:52;2.90;;;1.55;;